sensor_id;sensor_type;location;lat;lon;timestamp;P1;durP1;ratioP1;P2;durP2;ratioP2
67685;SDS011;54469;52.090;4.312;2023-01-01T00:00:03;44.6;;;25.6;;
67685;SDS011;54469;52.090;4.312;2023-01-01T00:05:03;32.9;;;17;;
67685;SDS011;54469;52.090;4.312;2023-01-01T00:10:03;41.2;;;21.8;;
67685;SDS011;54469;52.090;4.312;2023-01-01T00:15:02;45.2;;;21.9;;
67685;SDS011;54469;52.090;4.312;2023-01-01T00:20:02;38.4;;;19.2;;
67685;SDS011;54469;52.090;4.312;2023-01-01T00:25:03;32;;;17.3;;
67685;SDS011;54469;52.090;4.312;2023-01-01T00:30:03;31.4;;;15.3;;
67685;SDS011;54469;52.090;4.312;2023-01-01T00:35:03;33.4;;;15.2;;
67685;SDS011;54469;52.090;4.312;2023-01-01T00:40:02;29;;;14.1;;
67685;SDS011;54469;52.090;4.312;2023-01-01T00:45:03;21.8;;;11.2;;
67685;SDS011;54469;52.090;4.312;2023-01-01T00:50:03;21.8;;;11.2;;
67685;SDS011;54469;52.090;4.312;2023-01-01T00:55:03;24.4;;;10.5;;
67685;SDS011;54469;52.090;4.312;2023-01-01T01:00:03;25.5;;;13.1;;
67685;SDS011;54469;52.090;4.312;2023-01-01T01:05:03;20.399999999999995;;;9.6;;
67685;SDS011;54469;52.090;4.312;2023-01-01T01:10:03;20.399999999999995;;;9.6;;
67685;SDS011;54469;52.090;4.312;2023-01-01T01:15:03;20.399999999999995;;;9.6;;
67685;SDS011;54469;52.090;4.312;2023-01-01T01:20:03;16.899999999999995;;;8.1;;
67685;SDS011;54469;52.090;4.312;2023-01-01T01:25:03;16.899999999999995;;;8.1;;
67685;SDS011;54469;52.090;4.312;2023-01-01T01:30:03;15.6;;;5.9;;
67685;SDS011;54469;52.090;4.312;2023-01-01T01:35:03;15.6;;;5.9;;
67685;SDS011;54469;52.090;4.312;2023-01-01T01:40:03;15.1;;;3.6;;
67685;SDS011;54469;52.090;4.312;2023-01-01T01:45:05;11.5;;;4.6;;
67685;SDS011;54469;52.090;4.312;2023-01-01T01:50:05;11.5;;;4.6;;
67685;SDS011;54469;52.090;4.312;2023-01-01T01:55:03;11.5;;;4.6;;
67685;SDS011;54469;52.090;4.312;2023-01-01T02:00:03;11.5;;;4.6;;
67685;SDS011;54469;52.090;4.312;2023-01-01T02:05:03;9.1;;;3;;
67685;SDS011;54469;52.090;4.312;2023-01-01T02:10:03;12.9;;;4.7;;
67685;SDS011;54469;52.090;4.312;2023-01-01T02:15:03;9.9;;;4;;
67685;SDS011;54469;52.090;4.312;2023-01-01T02:20:10;14.9;;;4.4;;
67685;SDS011;54469;52.090;4.312;2023-01-01T02:25:07;9.6;;;4.1;;
67685;SDS011;54469;52.090;4.312;2023-01-01T02:30:03;12.6;;;3.6;;
67685;SDS011;54469;52.090;4.312;2023-01-01T02:35:03;8.800000000000002;;;2.8;;
67685;SDS011;54469;52.090;4.312;2023-01-01T02:40:02;8.800000000000002;;;2.8;;
67685;SDS011;54469;52.090;4.312;2023-01-01T02:45:02;11.1;;;4;;
67685;SDS011;54469;52.090;4.312;2023-01-01T02:50:04;5.4;;;2;;
67685;SDS011;54469;52.090;4.312;2023-01-01T02:55:03;9.800000000000002;;;3.2;;
67685;SDS011;54469;52.090;4.312;2023-01-01T03:00:03;7.5;;;2.4;;
67685;SDS011;54469;52.090;4.312;2023-01-01T03:05:04;7.5;;;2.4;;
67685;SDS011;54469;52.090;4.312;2023-01-01T03:10:03;9.699999999999998;;;1.9;;
67685;SDS011;54469;52.090;4.312;2023-01-01T03:15:03;9.699999999999998;;;1.9;;
67685;SDS011;54469;52.090;4.312;2023-01-01T03:20:04;6.8;;;2.1;;
67685;SDS011;54469;52.090;4.312;2023-01-01T03:25:03;9;;;1.9;;
67685;SDS011;54469;52.090;4.312;2023-01-01T03:30:04;12.9;;;1.8;;
67685;SDS011;54469;52.090;4.312;2023-01-01T03:35:03;6.2;;;1.9;;
67685;SDS011;54469;52.090;4.312;2023-01-01T03:40:03;6.2;;;1.9;;
67685;SDS011;54469;52.090;4.312;2023-01-01T03:45:03;10.199999999999998;;;1.9;;
67685;SDS011;54469;52.090;4.312;2023-01-01T03:50:02;10.199999999999998;;;1.9;;
67685;SDS011;54469;52.090;4.312;2023-01-01T03:55:04;10.199999999999998;;;1.9;;
67685;SDS011;54469;52.090;4.312;2023-01-01T04:00:03;10.199999999999998;;;1.9;;
67685;SDS011;54469;52.090;4.312;2023-01-01T04:05:02;15.5;;;3.3;;
67685;SDS011;54469;52.090;4.312;2023-01-01T04:10:03;8.9;;;2;;
67685;SDS011;54469;52.090;4.312;2023-01-01T04:15:02;8.9;;;2;;
67685;SDS011;54469;52.090;4.312;2023-01-01T04:20:02;8.9;;;2;;
67685;SDS011;54469;52.090;4.312;2023-01-01T04:25:02;13.3;;;2;;
67685;SDS011;54469;52.090;4.312;2023-01-01T04:30:03;13.3;;;2;;
67685;SDS011;54469;52.090;4.312;2023-01-01T04:35:02;13.3;;;2;;
67685;SDS011;54469;52.090;4.312;2023-01-01T04:40:03;16.4;;;3.2;;
67685;SDS011;54469;52.090;4.312;2023-01-01T04:45:02;16.4;;;3.2;;
67685;SDS011;54469;52.090;4.312;2023-01-01T04:50:03;16.4;;;3.2;;
67685;SDS011;54469;52.090;4.312;2023-01-01T04:55:03;16.4;;;3.2;;
67685;SDS011;54469;52.090;4.312;2023-01-01T05:00:03;16.4;;;3.2;;
67685;SDS011;54469;52.090;4.312;2023-01-01T05:05:02;9.6;;;2.4;;
67685;SDS011;54469;52.090;4.312;2023-01-01T05:10:02;9.6;;;2.4;;
67685;SDS011;54469;52.090;4.312;2023-01-01T05:15:03;15.8;;;2.8;;
67685;SDS011;54469;52.090;4.312;2023-01-01T05:20:03;11.3;;;2.2;;
67685;SDS011;54469;52.090;4.312;2023-01-01T05:25:03;11.3;;;2.2;;
67685;SDS011;54469;52.090;4.312;2023-01-01T05:30:03;11.3;;;2.2;;
67685;SDS011;54469;52.090;4.312;2023-01-01T05:35:03;17.7;;;3.2;;
67685;SDS011;54469;52.090;4.312;2023-01-01T05:40:03;12.6;;;2.4;;
67685;SDS011;54469;52.090;4.312;2023-01-01T05:45:03;7.9;;;1.7;;
67685;SDS011;54469;52.090;4.312;2023-01-01T05:50:03;13;;;2.4;;
67685;SDS011;54469;52.090;4.312;2023-01-01T05:55:02;10.199999999999998;;;2;;
67685;SDS011;54469;52.090;4.312;2023-01-01T06:00:02;14.7;;;2.8;;
67685;SDS011;54469;52.090;4.312;2023-01-01T06:05:03;10;;;2.1;;
67685;SDS011;54469;52.090;4.312;2023-01-01T06:10:03;10;;;2.1;;
67685;SDS011;54469;52.090;4.312;2023-01-01T06:15:03;10;;;2.1;;
67685;SDS011;54469;52.090;4.312;2023-01-01T06:20:02;16.2;;;2.7;;
67685;SDS011;54469;52.090;4.312;2023-01-01T06:25:02;9.699999999999998;;;1.8;;
67685;SDS011;54469;52.090;4.312;2023-01-01T06:30:03;19.8;;;3.3;;
67685;SDS011;54469;52.090;4.312;2023-01-01T06:35:03;23.5;;;4;;
67685;SDS011;54469;52.090;4.312;2023-01-01T06:40:03;15.8;;;1.9;;
67685;SDS011;54469;52.090;4.312;2023-01-01T06:45:03;15.8;;;1.9;;
67685;SDS011;54469;52.090;4.312;2023-01-01T06:50:02;14.6;;;3.1;;
67685;SDS011;54469;52.090;4.312;2023-01-01T06:55:02;7.4;;;1.5;;
67685;SDS011;54469;52.090;4.312;2023-01-01T07:00:02;13;;;2.6;;
67685;SDS011;54469;52.090;4.312;2023-01-01T07:05:03;13;;;2.6;;
67685;SDS011;54469;52.090;4.312;2023-01-01T07:10:03;15.1;;;1.8;;
67685;SDS011;54469;52.090;4.312;2023-01-01T07:15:02;15.1;;;1.8;;
67685;SDS011;54469;52.090;4.312;2023-01-01T07:20:02;10.3;;;1.7;;
67685;SDS011;54469;52.090;4.312;2023-01-01T07:25:03;12.8;;;2.7;;
67685;SDS011;54469;52.090;4.312;2023-01-01T07:30:03;15.8;;;2.1;;
67685;SDS011;54469;52.090;4.312;2023-01-01T07:35:03;13.3;;;1.6;;
67685;SDS011;54469;52.090;4.312;2023-01-01T07:40:03;10.7;;;2.5;;
67685;SDS011;54469;52.090;4.312;2023-01-01T07:45:02;10.7;;;2.5;;
67685;SDS011;54469;52.090;4.312;2023-01-01T07:50:02;13.2;;;2.7;;
67685;SDS011;54469;52.090;4.312;2023-01-01T07:55:03;9.300000000000002;;;1.9;;
67685;SDS011;54469;52.090;4.312;2023-01-01T08:00:03;19.5;;;3;;
67685;SDS011;54469;52.090;4.312;2023-01-01T08:05:03;10.5;;;2.2;;
67685;SDS011;54469;52.090;4.312;2023-01-01T08:10:03;7.7;;;1.6;;
67685;SDS011;54469;52.090;4.312;2023-01-01T08:15:03;13.7;;;2.2;;
67685;SDS011;54469;52.090;4.312;2023-01-01T08:20:02;13.7;;;2.2;;
67685;SDS011;54469;52.090;4.312;2023-01-01T08:25:03;10.6;;;1.6;;
67685;SDS011;54469;52.090;4.312;2023-01-01T08:30:03;8.300000000000002;;;1.1;;
67685;SDS011;54469;52.090;4.312;2023-01-01T08:35:03;13.3;;;1.8;;
67685;SDS011;54469;52.090;4.312;2023-01-01T08:40:03;13.3;;;1.8;;
67685;SDS011;54469;52.090;4.312;2023-01-01T08:45:03;13.3;;;1.8;;
67685;SDS011;54469;52.090;4.312;2023-01-01T08:50:03;11.2;;;2.1;;
67685;SDS011;54469;52.090;4.312;2023-01-01T08:55:02;13.3;;;1.6;;
67685;SDS011;54469;52.090;4.312;2023-01-01T09:00:02;9.5;;;1.5;;
67685;SDS011;54469;52.090;4.312;2023-01-01T09:05:02;9.5;;;1.5;;
67685;SDS011;54469;52.090;4.312;2023-01-01T09:10:03;9.5;;;1.5;;
67685;SDS011;54469;52.090;4.312;2023-01-01T09:15:03;9.5;;;1.5;;
67685;SDS011;54469;52.090;4.312;2023-01-01T09:20:03;9.5;;;1.5;;
67685;SDS011;54469;52.090;4.312;2023-01-01T09:25:02;4.5;;;1.2;;
67685;SDS011;54469;52.090;4.312;2023-01-01T09:30:02;7.5;;;2;;
67685;SDS011;54469;52.090;4.312;2023-01-01T09:35:03;10;;;1.6;;
67685;SDS011;54469;52.090;4.312;2023-01-01T09:40:03;10;;;1.6;;
67685;SDS011;54469;52.090;4.312;2023-01-01T09:45:12;7.8;;;1.9;;
67685;SDS011;54469;52.090;4.312;2023-01-01T09:50:04;10.9;;;1.6;;
67685;SDS011;54469;52.090;4.312;2023-01-01T09:55:03;7.6;;;1.4;;
67685;SDS011;54469;52.090;4.312;2023-01-01T10:00:05;7.6;;;1.4;;
67685;SDS011;54469;52.090;4.312;2023-01-01T10:05:03;4.8;;;1.2;;
67685;SDS011;54469;52.090;4.312;2023-01-01T10:10:03;9.1;;;1.5;;
67685;SDS011;54469;52.090;4.312;2023-01-01T10:15:06;9.1;;;1.5;;
67685;SDS011;54469;52.090;4.312;2023-01-01T10:20:03;12.6;;;1.5;;
67685;SDS011;54469;52.090;4.312;2023-01-01T10:25:03;9.6;;;1.8;;
67685;SDS011;54469;52.090;4.312;2023-01-01T10:30:03;6.7;;;1.6;;
67685;SDS011;54469;52.090;4.312;2023-01-01T10:35:02;11.6;;;1.7;;
67685;SDS011;54469;52.090;4.312;2023-01-01T10:40:09;8.199999999999998;;;1.5;;
67685;SDS011;54469;52.090;4.312;2023-01-01T10:45:02;8.199999999999998;;;1.5;;
67685;SDS011;54469;52.090;4.312;2023-01-01T10:50:03;8.199999999999998;;;1.5;;
67685;SDS011;54469;52.090;4.312;2023-01-01T10:55:03;5.3;;;1.4;;
67685;SDS011;54469;52.090;4.312;2023-01-01T11:00:17;5.3;;;1.4;;
67685;SDS011;54469;52.090;4.312;2023-01-01T11:05:19;5.3;;;1.4;;
67685;SDS011;54469;52.090;4.312;2023-01-01T11:10:03;11.3;;;1.8;;
67685;SDS011;54469;52.090;4.312;2023-01-01T11:15:03;11.3;;;1.8;;
67685;SDS011;54469;52.090;4.312;2023-01-01T11:20:03;9.300000000000002;;;1.8;;
67685;SDS011;54469;52.090;4.312;2023-01-01T11:25:04;9.300000000000002;;;1.8;;
67685;SDS011;54469;52.090;4.312;2023-01-01T11:30:17;16.1;;;2;;
67685;SDS011;54469;52.090;4.312;2023-01-01T11:35:03;5.2;;;1.6;;
67685;SDS011;54469;52.090;4.312;2023-01-01T11:40:03;9.4;;;1.9;;
67685;SDS011;54469;52.090;4.312;2023-01-01T11:45:05;9.4;;;1.9;;
67685;SDS011;54469;52.090;4.312;2023-01-01T11:50:04;9.4;;;1.9;;
67685;SDS011;54469;52.090;4.312;2023-01-01T11:55:07;9.4;;;1.9;;
67685;SDS011;54469;52.090;4.312;2023-01-01T12:00:03;11.9;;;1.3;;
67685;SDS011;54469;52.090;4.312;2023-01-01T12:05:05;6.5;;;1.4;;
67685;SDS011;54469;52.090;4.312;2023-01-01T12:10:03;9.1;;;1.4;;
67685;SDS011;54469;52.090;4.312;2023-01-01T12:15:03;9.1;;;1.4;;
67685;SDS011;54469;52.090;4.312;2023-01-01T12:20:04;9.1;;;1.4;;
67685;SDS011;54469;52.090;4.312;2023-01-01T12:25:03;12.6;;;1.8;;
67685;SDS011;54469;52.090;4.312;2023-01-01T12:30:04;12.6;;;1.8;;
67685;SDS011;54469;52.090;4.312;2023-01-01T12:35:04;9;;;1.6;;
67685;SDS011;54469;52.090;4.312;2023-01-01T12:41:10;9;;;1.6;;
67685;SDS011;54469;52.090;4.312;2023-01-01T12:45:14;9;;;1.6;;
67685;SDS011;54469;52.090;4.312;2023-01-01T12:50:06;9;;;1.6;;
67685;SDS011;54469;52.090;4.312;2023-01-01T12:55:10;9;;;1.6;;
67685;SDS011;54469;52.090;4.312;2023-01-01T13:00:04;6.6;;;1.7;;
67685;SDS011;54469;52.090;4.312;2023-01-01T13:05:04;9.4;;;1.7;;
67685;SDS011;54469;52.090;4.312;2023-01-01T13:10:05;12.5;;;2.1;;
67685;SDS011;54469;52.090;4.312;2023-01-01T13:15:33;7.6;;;1.5;;
67685;SDS011;54469;52.090;4.312;2023-01-01T13:20:14;10.8;;;1.7;;
67685;SDS011;54469;52.090;4.312;2023-01-01T13:25:04;8.4;;;1.9;;
67685;SDS011;54469;52.090;4.312;2023-01-01T13:30:13;8.4;;;1.9;;
67685;SDS011;54469;52.090;4.312;2023-01-01T13:35:13;15.3;;;1.9;;
67685;SDS011;54469;52.090;4.312;2023-01-01T13:40:03;15.3;;;1.9;;
67685;SDS011;54469;52.090;4.312;2023-01-01T13:45:02;15.3;;;1.9;;
67685;SDS011;54469;52.090;4.312;2023-01-01T13:50:03;15.3;;;1.9;;
67685;SDS011;54469;52.090;4.312;2023-01-01T13:57:21;10;;;1.6;;
67685;SDS011;54469;52.090;4.312;2023-01-01T14:00:04;12.2;;;2.2;;
67685;SDS011;54469;52.090;4.312;2023-01-01T14:05:03;9.4;;;2;;
67685;SDS011;54469;52.090;4.312;2023-01-01T14:10:34;11.8;;;2.2;;
67685;SDS011;54469;52.090;4.312;2023-01-01T14:15:13;8.6;;;1.6;;
67685;SDS011;54469;52.090;4.312;2023-01-01T14:20:04;12.1;;;2;;
67685;SDS011;54469;52.090;4.312;2023-01-01T14:25:02;12.1;;;2;;
67685;SDS011;54469;52.090;4.312;2023-01-01T14:30:02;12.1;;;2;;
67685;SDS011;54469;52.090;4.312;2023-01-01T14:35:12;12.1;;;2;;
67685;SDS011;54469;52.090;4.312;2023-01-01T14:40:07;12.1;;;2;;
67685;SDS011;54469;52.090;4.312;2023-01-01T14:45:03;9.300000000000002;;;2.2;;
67685;SDS011;54469;52.090;4.312;2023-01-01T14:50:03;12.1;;;2.6;;
67685;SDS011;54469;52.090;4.312;2023-01-01T14:55:02;12.1;;;2.6;;
67685;SDS011;54469;52.090;4.312;2023-01-01T15:00:03;12.1;;;2.6;;
67685;SDS011;54469;52.090;4.312;2023-01-01T15:05:14;16.8;;;2.9;;
67685;SDS011;54469;52.090;4.312;2023-01-01T15:10:03;12;;;3.4;;
67685;SDS011;54469;52.090;4.312;2023-01-01T15:15:03;12;;;3.4;;
67685;SDS011;54469;52.090;4.312;2023-01-01T15:20:03;15.9;;;2.8;;
67685;SDS011;54469;52.090;4.312;2023-01-01T15:25:02;10.1;;;1.8;;
67685;SDS011;54469;52.090;4.312;2023-01-01T15:30:04;12.7;;;2.2;;
67685;SDS011;54469;52.090;4.312;2023-01-01T15:35:02;12.7;;;2.2;;
67685;SDS011;54469;52.090;4.312;2023-01-01T15:40:28;17.3;;;3.1;;
67685;SDS011;54469;52.090;4.312;2023-01-01T15:45:13;17.3;;;3.1;;
67685;SDS011;54469;52.090;4.312;2023-01-01T15:50:06;12.2;;;2.4;;
67685;SDS011;54469;52.090;4.312;2023-01-01T15:55:03;8.699999999999998;;;2.1;;
67685;SDS011;54469;52.090;4.312;2023-01-01T16:00:03;8.699999999999998;;;2.1;;
67685;SDS011;54469;52.090;4.312;2023-01-01T16:05:20;8.699999999999998;;;2.1;;
67685;SDS011;54469;52.090;4.312;2023-01-01T16:10:02;12.1;;;2.5;;
67685;SDS011;54469;52.090;4.312;2023-01-01T16:15:03;12.1;;;2.5;;
67685;SDS011;54469;52.090;4.312;2023-01-01T16:20:03;9.6;;;2.7;;
67685;SDS011;54469;52.090;4.312;2023-01-01T16:25:07;9.6;;;2.7;;
67685;SDS011;54469;52.090;4.312;2023-01-01T16:30:02;9.6;;;2.7;;
67685;SDS011;54469;52.090;4.312;2023-01-01T16:35:10;9.6;;;2.7;;
67685;SDS011;54469;52.090;4.312;2023-01-01T16:40:03;9.6;;;2.7;;
67685;SDS011;54469;52.090;4.312;2023-01-01T16:45:03;9.6;;;2.7;;
67685;SDS011;54469;52.090;4.312;2023-01-01T16:50:02;16.4;;;3.4;;
67685;SDS011;54469;52.090;4.312;2023-01-01T16:55:02;16.4;;;3.4;;
67685;SDS011;54469;52.090;4.312;2023-01-01T17:00:02;12.7;;;3;;
67685;SDS011;54469;52.090;4.312;2023-01-01T17:05:03;12.7;;;3;;
67685;SDS011;54469;52.090;4.312;2023-01-01T17:10:03;12.7;;;3;;
67685;SDS011;54469;52.090;4.312;2023-01-01T17:15:02;15.8;;;3.9;;
67685;SDS011;54469;52.090;4.312;2023-01-01T17:20:03;8.300000000000002;;;2.4;;
67685;SDS011;54469;52.090;4.312;2023-01-01T17:25:03;13.4;;;3.6;;
67685;SDS011;54469;52.090;4.312;2023-01-01T17:30:03;16.1;;;3.4;;
67685;SDS011;54469;52.090;4.312;2023-01-01T17:35:03;12.2;;;2.5;;
67685;SDS011;54469;52.090;4.312;2023-01-01T17:40:03;21.5;;;4.1;;
67685;SDS011;54469;52.090;4.312;2023-01-01T17:45:03;15.2;;;3;;
67685;SDS011;54469;52.090;4.312;2023-01-01T17:50:02;17.600000000000005;;;4.3;;
67685;SDS011;54469;52.090;4.312;2023-01-01T17:55:02;17.600000000000005;;;4.3;;
67685;SDS011;54469;52.090;4.312;2023-01-01T18:00:03;19.600000000000005;;;4.5;;
67685;SDS011;54469;52.090;4.312;2023-01-01T18:05:02;14.1;;;3;;
67685;SDS011;54469;52.090;4.312;2023-01-01T18:10:03;14.1;;;3;;
67685;SDS011;54469;52.090;4.312;2023-01-01T18:15:03;14.3;;;4.3;;
67685;SDS011;54469;52.090;4.312;2023-01-01T18:20:03;14.3;;;4.3;;
67685;SDS011;54469;52.090;4.312;2023-01-01T18:25:03;7.8;;;3.1;;
67685;SDS011;54469;52.090;4.312;2023-01-01T18:30:03;12;;;3.1;;
67685;SDS011;54469;52.090;4.312;2023-01-01T18:35:03;4;;;1.8;;
67685;SDS011;54469;52.090;4.312;2023-01-01T18:40:07;9.6;;;2.4;;
67685;SDS011;54469;52.090;4.312;2023-01-01T18:45:07;9.6;;;2.4;;
67685;SDS011;54469;52.090;4.312;2023-01-01T18:50:06;9.6;;;2.4;;
67685;SDS011;54469;52.090;4.312;2023-01-01T18:55:09;11;;;3.7;;
67685;SDS011;54469;52.090;4.312;2023-01-01T19:00:05;13.2;;;4;;
67685;SDS011;54469;52.090;4.312;2023-01-01T19:05:19;13.2;;;4;;
67685;SDS011;54469;52.090;4.312;2023-01-01T19:10:07;13.2;;;4;;
67685;SDS011;54469;52.090;4.312;2023-01-01T19:15:08;8.699999999999998;;;3.7;;
67685;SDS011;54469;52.090;4.312;2023-01-01T19:20:08;12.6;;;3.5;;
67685;SDS011;54469;52.090;4.312;2023-01-01T19:25:05;12.3;;;5.7;;
67685;SDS011;54469;52.090;4.312;2023-01-01T19:30:17;12.3;;;5.7;;
67685;SDS011;54469;52.090;4.312;2023-01-01T19:35:03;12.3;;;5.7;;
67685;SDS011;54469;52.090;4.312;2023-01-01T19:40:02;12.3;;;5.7;;
67685;SDS011;54469;52.090;4.312;2023-01-01T19:45:02;14;;;3.4;;
67685;SDS011;54469;52.090;4.312;2023-01-01T19:50:03;11.1;;;3.2;;
67685;SDS011;54469;52.090;4.312;2023-01-01T19:55:02;9;;;3.2;;
67685;SDS011;54469;52.090;4.312;2023-01-01T20:00:02;13.2;;;5.3;;
67685;SDS011;54469;52.090;4.312;2023-01-01T20:05:02;9.6;;;4.4;;
67685;SDS011;54469;52.090;4.312;2023-01-01T20:10:03;12.1;;;4.7;;
67685;SDS011;54469;52.090;4.312;2023-01-01T20:15:03;5.9;;;3.2;;
67685;SDS011;54469;52.090;4.312;2023-01-01T20:20:03;8.300000000000002;;;4.1;;
67685;SDS011;54469;52.090;4.312;2023-01-01T20:25:03;5.4;;;2.8;;
67685;SDS011;54469;52.090;4.312;2023-01-01T20:30:02;5.4;;;2.8;;
67685;SDS011;54469;52.090;4.312;2023-01-01T20:35:02;5.4;;;2.8;;
67685;SDS011;54469;52.090;4.312;2023-01-01T20:40:04;5.4;;;2.8;;
67685;SDS011;54469;52.090;4.312;2023-01-01T20:45:03;5.4;;;2.8;;
67685;SDS011;54469;52.090;4.312;2023-01-01T20:50:02;7.9;;;3.7;;
67685;SDS011;54469;52.090;4.312;2023-01-01T20:55:04;4.2;;;2.9;;
67685;SDS011;54469;52.090;4.312;2023-01-01T21:00:03;7;;;3.2;;
67685;SDS011;54469;52.090;4.312;2023-01-01T21:05:02;3.3;;;2.5;;
67685;SDS011;54469;52.090;4.312;2023-01-01T21:10:02;6.2;;;3.7;;
67685;SDS011;54469;52.090;4.312;2023-01-01T21:15:08;10.1;;;4.3;;
67685;SDS011;54469;52.090;4.312;2023-01-01T21:20:02;6.8;;;4.3;;
67685;SDS011;54469;52.090;4.312;2023-01-01T21:25:05;10.9;;;4.8;;
67685;SDS011;54469;52.090;4.312;2023-01-01T21:30:07;10.9;;;4.8;;
67685;SDS011;54469;52.090;4.312;2023-01-01T21:35:08;10.9;;;4.8;;
67685;SDS011;54469;52.090;4.312;2023-01-01T21:40:18;10.9;;;4.8;;
67685;SDS011;54469;52.090;4.312;2023-01-01T21:45:02;10.9;;;4.8;;
67685;SDS011;54469;52.090;4.312;2023-01-01T21:50:04;10.9;;;4.8;;
67685;SDS011;54469;52.090;4.312;2023-01-01T21:55:06;7;;;3.3;;
67685;SDS011;54469;52.090;4.312;2023-01-01T22:00:04;7;;;3.3;;
67685;SDS011;54469;52.090;4.312;2023-01-01T22:05:35;12.8;;;4;;
67685;SDS011;54469;52.090;4.312;2023-01-01T22:10:09;8.699999999999998;;;3.6;;
67685;SDS011;54469;52.090;4.312;2023-01-01T22:15:18;6.7;;;3.5;;
67685;SDS011;54469;52.090;4.312;2023-01-01T22:20:14;6.7;;;3.5;;
67685;SDS011;54469;52.090;4.312;2023-01-01T22:25:07;6.7;;;3.5;;
67685;SDS011;54469;52.090;4.312;2023-01-01T22:30:08;9.199999999999998;;;3.1;;
67685;SDS011;54469;52.090;4.312;2023-01-01T22:35:04;9.199999999999998;;;3.1;;
67685;SDS011;54469;52.090;4.312;2023-01-01T22:40:03;14.6;;;4.4;;
67685;SDS011;54469;52.090;4.312;2023-01-01T22:45:03;10.1;;;4.5;;
67685;SDS011;54469;52.090;4.312;2023-01-01T22:50:03;10.1;;;4.5;;
67685;SDS011;54469;52.090;4.312;2023-01-01T22:55:02;10.1;;;4.5;;
67685;SDS011;54469;52.090;4.312;2023-01-01T23:00:03;13.9;;;5.1;;
67685;SDS011;54469;52.090;4.312;2023-01-01T23:05:02;13.9;;;5.1;;
67685;SDS011;54469;52.090;4.312;2023-01-01T23:10:03;9.199999999999998;;;4.2;;
67685;SDS011;54469;52.090;4.312;2023-01-01T23:15:03;12.9;;;4.7;;
67685;SDS011;54469;52.090;4.312;2023-01-01T23:20:03;12.9;;;4.7;;
67685;SDS011;54469;52.090;4.312;2023-01-01T23:25:03;12.9;;;4.7;;
67685;SDS011;54469;52.090;4.312;2023-01-01T23:30:02;12.9;;;4.7;;
67685;SDS011;54469;52.090;4.312;2023-01-01T23:35:02;12.9;;;4.7;;
67685;SDS011;54469;52.090;4.312;2023-01-01T23:40:02;12.9;;;4.7;;
67685;SDS011;54469;52.090;4.312;2023-01-01T23:45:03;12.9;;;4.7;;
67685;SDS011;54469;52.090;4.312;2023-01-01T23:50:03;12.9;;;4.7;;
67685;SDS011;54469;52.090;4.312;2023-01-01T23:55:02;10.4;;;3.3;;
